Main page
METAR-TAF:

METAR-TAF

Airports :

Oil platform

Troll A, Norway

latitude: 60-38-42N, longitude: 3-43-29E, elevation: 20 m

Current weather observation

The report was made 37 minutes ago, at 05:50 UTC
Wind 31 kt from the East/Northeast
Temperature 13°C
Humidity 62%
Pressure 987 hPa
Visibility 10 km or more
light rain showers

METAR: ENQA 050550Z AUTO 06031KT 9999NDV -SHRA OVC071/// 13/06 Q0987 W09/S3

Time: 08:27 (06:27 UTC)


TAF: missing

Weather observations and forecasts of more than 4000 airports (METAR and TAF reports).

The available stations are represented by yellow and red dots on the map.

Hover mouse over dot to see the name of the station.

Then click to see weather observations and forecasts.

To change the map : click on the green buttons with a black cross to zoom in, on the green button with a dash to zoom out, or on the green arrows for adjacent maps.


METAR-TAF: